Sea Drift — WDC2818 — position and weather

sailwx.info

Track history (hours):
 
Tides and Currents Weather Stations Pressure Air Temp Water Temp Dewpoint Dewpoint Depression Visibility Wind Speed Wind Dir Waves Ship Positions

Sea Drift

More information available from US FCC via Universal Licensing System and Coast Guard Vessel Documentation Center.

Last reported at 2014-Jul-22 16:27 UTC. Time now 2014-Jul-22 21:31 UTC.
Position N 29°32' W 094°54'.

Length 23 m; draft 3 m.

Type: Towing. MMSI: 366998080.

Date/timePositionNaut miles runAvg speedWind from/ knotsBaromVisibWave heightAir tempDewpointWater temp
2014-Jul-22 16:27N 29°32' W 094°54'6 7.1
2014-Jul-22 15:33N 29°38' W 094°58'7 7.1
2014-Jul-22 14:33N 29°44' W 095°02'4 3.8
2014-Jul-22 13:33N 29°46' W 095°06'2 1.8
2014-Jul-22 12:33N 29°47' W 095°04'0 0.0
2014-Jul-22 11:33N 29°47' W 095°04'0 0.0
2014-Jul-22 10:33N 29°47' W 095°04'0 0.0
2014-Jul-22 09:34N 29°47' W 095°04'0 0.0
2014-Jul-22 08:33N 29°47' W 095°04'0 0.0
2014-Jul-22 07:33N 29°47' W 095°04'0 0.0
2014-Jul-22 06:33N 29°47' W 095°04'0 0.0
2014-Jul-22 05:33N 29°47' W 095°04'0 0.0
2014-Jul-22 04:33N 29°47' W 095°04'0 0.0
2014-Jul-22 03:33N 29°47' W 095°04'1 1.5
2014-Jul-22 02:33N 29°46' W 095°04'7 6.5
2014-Jul-22 01:33N 29°41' W 094°59'4 4.2
2014-Jul-22 00:33N 29°37' W 094°59'1 0.8
2014-Jul-21 23:33N 29°37' W 095°00'6 5.6
2014-Jul-21 22:33N 29°42' W 095°01'6 5.8
2014-Jul-21 21:33N 29°47' W 095°04'2 2.2
2014-Jul-21 20:33N 29°46' W 095°06'0 1.6
2014-Jul-21 20:18N 29°46' W 095°05'2 2.2
2014-Jul-21 19:33N 29°47' W 095°04'0 0.3
2014-Jul-21 18:33N 29°47' W 095°04'1 1.3
2014-Jul-21 17:33N 29°46' W 095°05'1 1.2
2014-Jul-21 16:33N 29°46' W 095°06'0 0.0
2014-Jul-21 15:33N 29°46' W 095°06'2 2.0
2014-Jul-21 14:33N 29°47' W 095°04'2 1.6
2014-Jul-21 13:34N 29°46' W 095°06'1 0.5
2014-Jul-21 12:33N 29°46' W 095°07'0 0.0
2014-Jul-21 11:33N 29°46' W 095°07'0 0.0
2014-Jul-21 10:33N 29°46' W 095°07'0 0.0
2014-Jul-21 09:33N 29°46' W 095°07'0 0.0
2014-Jul-21 08:33N 29°46' W 095°07'0 0.0
2014-Jul-21 07:33N 29°46' W 095°07'0 0.0
2014-Jul-21 06:33N 29°46' W 095°07'1 1.5
2014-Jul-21 05:33N 29°46' W 095°05'1 1.4
2014-Jul-21 04:33N 29°47' W 095°04'0 0.0
2014-Jul-21 03:33N 29°47' W 095°04'0 0.0
2014-Jul-21 02:33N 29°47' W 095°04'0 0.0
2014-Jul-21 01:33N 29°47' W 095°04'0 0.0
2014-Jul-21 00:33N 29°47' W 095°04'0 0.0
2014-Jul-20 23:33N 29°47' W 095°04'0 0.0
2014-Jul-20 22:33N 29°47' W 095°04'0 0.0
2014-Jul-20 21:34N 29°47' W 095°04'1 0.7
2014-Jul-20 20:33N 29°47' W 095°05'4 3.9
2014-Jul-20 19:33N 29°44' W 095°01'3 2.9
2014-Jul-20 18:33N 29°45' W 095°04'1 1.4
2014-Jul-20 17:33N 29°45' W 095°06'2 1.9
2014-Jul-20 16:33N 29°44' W 095°08'2 2.2
2014-Jul-20 15:34N 29°46' W 095°06'0 0.1
2014-Jul-20 14:34N 29°46' W 095°06'0 0.0
2014-Jul-20 13:33N 29°46' W 095°06'0 0.0
2014-Jul-20 12:33N 29°46' W 095°06'0 0.0
2014-Jul-20 11:33N 29°46' W 095°06'0 0.0
2014-Jul-20 10:33N 29°46' W 095°06'0 0.0
2014-Jul-20 09:33N 29°46' W 095°06'0 0.1
2014-Jul-20 08:33N 29°46' W 095°06'0 0.0
2014-Jul-20 07:31N 29°46' W 095°06'0 0.0
2014-Jul-20 06:33N 29°46' W 095°06'0 0.0
2014-Jul-20 05:33N 29°46' W 095°06'0 0.0
2014-Jul-20 04:34N 29°46' W 095°06'0 0.0
2014-Jul-20 03:33N 29°46' W 095°06'0 0.4
2014-Jul-20 02:33N 29°45' W 095°06'0 0.0
2014-Jul-20 01:33N 29°46' W 095°06'2 1.7
2014-Jul-20 00:33N 29°44' W 095°07'7 6.9
2014-Jul-19 23:33N 29°43' W 095°15'1 1.2
2014-Jul-19 22:33N 29°43' W 095°16'  
2014-Jul-15 20:23N 29°43' W 095°16'0 0.0
2014-Jul-15 19:33N 29°43' W 095°16'0 0.0
2014-Jul-15 17:33N 29°43' W 095°16'0 0.0
2014-Jul-15 16:33N 29°43' W 095°16'0 0.3
2014-Jul-15 15:34N 29°43' W 095°16'0 0.2
2014-Jul-15 14:34N 29°43' W 095°16'0 0.0
2014-Jul-15 13:34N 29°43' W 095°16'0 0.0
2014-Jul-15 12:34N 29°43' W 095°16'0 0.0
2014-Jul-15 11:34N 29°43' W 095°16'2 1.8
2014-Jul-15 10:34N 29°43' W 095°14'7 6.6
2014-Jul-15 09:34N 29°44' W 095°07'5 5.0
2014-Jul-15 08:33N 29°43' W 095°01'6 6.0
2014-Jul-15 07:33N 29°38' W 094°58'7 6.9
2014-Jul-15 06:33N 29°32' W 094°54'3 0.1
2014-Jul-13 23:24N 29°29' W 094°52'6 6.8
2014-Jul-13 22:33N 29°34' W 094°55'7 6.5
2014-Jul-13 21:33N 29°40' W 094°58'6 6.3
2014-Jul-13 20:33N 29°44' W 095°04'2 2.3
2014-Jul-13 19:33N 29°46' W 095°06'1 1.0
2014-Jul-13 18:33N 29°46' W 095°05'1 1.0
2014-Jul-13 17:33N 29°46' W 095°06'0 0.0
2014-Jul-13 16:33N 29°46' W 095°06'0 0.0
2014-Jul-13 15:34N 29°46' W 095°06'0 0.1
2014-Jul-13 14:33N 29°46' W 095°05'0 0.0
2014-Jul-13 13:33N 29°46' W 095°05'5 5.1
2014-Jul-13 12:33N 29°42' W 095°01'6 5.7
2014-Jul-13 11:33N 29°38' W 094°58'6 6.1
2014-Jul-13 10:32N 29°32' W 094°54'9 6.4
2014-Jul-13 09:12N 29°25' W 094°49'10 1.0
2014-Jul-12 23:05N 29°17' W 094°56'  
Track history (hours):
 
Tides and Currents Weather Stations Pressure Air Temp Water Temp Dewpoint Dewpoint Depression Visibility Wind Speed Wind Dir Waves Ship Positions

Sea Drift

More information available from US FCC via Universal Licensing System and Coast Guard Vessel Documentation Center.

Last reported at 2014-Jul-22 16:27 UTC. Time now 2014-Jul-22 21:31 UTC.
Position N 29°32' W 094°54'.

Length 23 m; draft 3 m.

Type: Towing. MMSI: 366998080.

Date/timePositionNaut miles runAvg speedWind from/ knotsBaromVisibWave heightAir tempDewpointWater temp
2014-Jul-22 16:27N 29°32' W 094°54'6 7.1
2014-Jul-22 15:33N 29°38' W 094°58'7 7.1
2014-Jul-22 14:33N 29°44' W 095°02'4 3.8
2014-Jul-22 13:33N 29°46' W 095°06'2 1.8
2014-Jul-22 12:33N 29°47' W 095°04'0 0.0
2014-Jul-22 11:33N 29°47' W 095°04'0 0.0
2014-Jul-22 10:33N 29°47' W 095°04'0 0.0
2014-Jul-22 09:34N 29°47' W 095°04'0 0.0
2014-Jul-22 08:33N 29°47' W 095°04'0 0.0
2014-Jul-22 07:33N 29°47' W 095°04'0 0.0
2014-Jul-22 06:33N 29°47' W 095°04'0 0.0
2014-Jul-22 05:33N 29°47' W 095°04'0 0.0
2014-Jul-22 04:33N 29°47' W 095°04'0 0.0
2014-Jul-22 03:33N 29°47' W 095°04'1 1.5
2014-Jul-22 02:33N 29°46' W 095°04'7 6.5
2014-Jul-22 01:33N 29°41' W 094°59'4 4.2
2014-Jul-22 00:33N 29°37' W 094°59'1 0.8
2014-Jul-21 23:33N 29°37' W 095°00'6 5.6
2014-Jul-21 22:33N 29°42' W 095°01'6 5.8
2014-Jul-21 21:33N 29°47' W 095°04'2 2.2
2014-Jul-21 20:33N 29°46' W 095°06'0 1.6
2014-Jul-21 20:18N 29°46' W 095°05'2 2.2
2014-Jul-21 19:33N 29°47' W 095°04'0 0.3
2014-Jul-21 18:33N 29°47' W 095°04'1 1.3
2014-Jul-21 17:33N 29°46' W 095°05'1 1.2
2014-Jul-21 16:33N 29°46' W 095°06'0 0.0
2014-Jul-21 15:33N 29°46' W 095°06'2 2.0
2014-Jul-21 14:33N 29°47' W 095°04'2 1.6
2014-Jul-21 13:34N 29°46' W 095°06'1 0.5
2014-Jul-21 12:33N 29°46' W 095°07'0 0.0
2014-Jul-21 11:33N 29°46' W 095°07'0 0.0
2014-Jul-21 10:33N 29°46' W 095°07'0 0.0
2014-Jul-21 09:33N 29°46' W 095°07'0 0.0
2014-Jul-21 08:33N 29°46' W 095°07'0 0.0
2014-Jul-21 07:33N 29°46' W 095°07'0 0.0
2014-Jul-21 06:33N 29°46' W 095°07'1 1.5
2014-Jul-21 05:33N 29°46' W 095°05'1 1.4
2014-Jul-21 04:33N 29°47' W 095°04'0 0.0
2014-Jul-21 03:33N 29°47' W 095°04'0 0.0
2014-Jul-21 02:33N 29°47' W 095°04'0 0.0
2014-Jul-21 01:33N 29°47' W 095°04'0 0.0
2014-Jul-21 00:33N 29°47' W 095°04'0 0.0
2014-Jul-20 23:33N 29°47' W 095°04'0 0.0
2014-Jul-20 22:33N 29°47' W 095°04'0 0.0
2014-Jul-20 21:34N 29°47' W 095°04'1 0.7
2014-Jul-20 20:33N 29°47' W 095°05'4 3.9
2014-Jul-20 19:33N 29°44' W 095°01'3 2.9
2014-Jul-20 18:33N 29°45' W 095°04'1 1.4
2014-Jul-20 17:33N 29°45' W 095°06'2 1.9
2014-Jul-20 16:33N 29°44' W 095°08'2 2.2
2014-Jul-20 15:34N 29°46' W 095°06'0 0.1
2014-Jul-20 14:34N 29°46' W 095°06'0 0.0
2014-Jul-20 13:33N 29°46' W 095°06'0 0.0
2014-Jul-20 12:33N 29°46' W 095°06'0 0.0
2014-Jul-20 11:33N 29°46' W 095°06'0 0.0
2014-Jul-20 10:33N 29°46' W 095°06'0 0.0
2014-Jul-20 09:33N 29°46' W 095°06'0 0.1
2014-Jul-20 08:33N 29°46' W 095°06'0 0.0
2014-Jul-20 07:31N 29°46' W 095°06'0 0.0
2014-Jul-20 06:33N 29°46' W 095°06'0 0.0
2014-Jul-20 05:33N 29°46' W 095°06'0 0.0
2014-Jul-20 04:34N 29°46' W 095°06'0 0.0
2014-Jul-20 03:33N 29°46' W 095°06'0 0.4
2014-Jul-20 02:33N 29°45' W 095°06'0 0.0
2014-Jul-20 01:33N 29°46' W 095°06'2 1.7
2014-Jul-20 00:33N 29°44' W 095°07'7 6.9
2014-Jul-19 23:33N 29°43' W 095°15'1 1.2
2014-Jul-19 22:33N 29°43' W 095°16'  
2014-Jul-15 20:23N 29°43' W 095°16'0 0.0
2014-Jul-15 19:33N 29°43' W 095°16'0 0.0
2014-Jul-15 17:33N 29°43' W 095°16'0 0.0
2014-Jul-15 16:33N 29°43' W 095°16'0 0.3
2014-Jul-15 15:34N 29°43' W 095°16'0 0.2
2014-Jul-15 14:34N 29°43' W 095°16'0 0.0
2014-Jul-15 13:34N 29°43' W 095°16'0 0.0
2014-Jul-15 12:34N 29°43' W 095°16'0 0.0
2014-Jul-15 11:34N 29°43' W 095°16'2 1.8
2014-Jul-15 10:34N 29°43' W 095°14'7 6.6
2014-Jul-15 09:34N 29°44' W 095°07'5 5.0
2014-Jul-15 08:33N 29°43' W 095°01'6 6.0
2014-Jul-15 07:33N 29°38' W 094°58'7 6.9
2014-Jul-15 06:33N 29°32' W 094°54'3 0.1
2014-Jul-13 23:24N 29°29' W 094°52'6 6.8
2014-Jul-13 22:33N 29°34' W 094°55'7 6.5
2014-Jul-13 21:33N 29°40' W 094°58'6 6.3
2014-Jul-13 20:33N 29°44' W 095°04'2 2.3
2014-Jul-13 19:33N 29°46' W 095°06'1 1.0
2014-Jul-13 18:33N 29°46' W 095°05'1 1.0
2014-Jul-13 17:33N 29°46' W 095°06'0 0.0
2014-Jul-13 16:33N 29°46' W 095°06'0 0.0
2014-Jul-13 15:34N 29°46' W 095°06'0 0.1
2014-Jul-13 14:33N 29°46' W 095°05'0 0.0
2014-Jul-13 13:33N 29°46' W 095°05'5 5.1
2014-Jul-13 12:33N 29°42' W 095°01'6 5.7
2014-Jul-13 11:33N 29°38' W 094°58'6 6.1
2014-Jul-13 10:32N 29°32' W 094°54'9 6.4
2014-Jul-13 09:12N 29°25' W 094°49'10 1.0
2014-Jul-12 23:05N 29°17' W 094°56'  

Dump ship's entire track history